sensor_id;sensor_type;location;lat;lon;timestamp;P1;durP1;ratioP1;P2;durP2;ratioP2
24277;SDS011;12394;42.692;23.314;2023-08-06T00:01:49;8.00;;;4.90;;
24277;SDS011;12394;42.692;23.314;2023-08-06T00:04:14;6.80;;;4.80;;
24277;SDS011;12394;42.692;23.314;2023-08-06T00:06:40;5.60;;;4.23;;
24277;SDS011;12394;42.692;23.314;2023-08-06T00:09:05;8.13;;;4.40;;
24277;SDS011;12394;42.692;23.314;2023-08-06T00:11:31;10.43;;;5.23;;
24277;SDS011;12394;42.692;23.314;2023-08-06T00:13:56;8.03;;;4.80;;
24277;SDS011;12394;42.692;23.314;2023-08-06T00:16:22;8.17;;;4.73;;
24277;SDS011;12394;42.692;23.314;2023-08-06T00:18:47;11.07;;;5.10;;
24277;SDS011;12394;42.692;23.314;2023-08-06T00:21:12;8.40;;;4.53;;
24277;SDS011;12394;42.692;23.314;2023-08-06T00:23:38;11.97;;;5.17;;
24277;SDS011;12394;42.692;23.314;2023-08-06T00:26:04;10.07;;;5.07;;
24277;SDS011;12394;42.692;23.314;2023-08-06T00:28:30;7.73;;;4.97;;
24277;SDS011;12394;42.692;23.314;2023-08-06T00:30:55;7.90;;;4.73;;
24277;SDS011;12394;42.692;23.314;2023-08-06T00:33:24;7.40;;;4.40;;
24277;SDS011;12394;42.692;23.314;2023-08-06T00:35:50;6.47;;;4.17;;
24277;SDS011;12394;42.692;23.314;2023-08-06T00:38:16;5.47;;;4.13;;
24277;SDS011;12394;42.692;23.314;2023-08-06T00:40:41;6.57;;;4.57;;
24277;SDS011;12394;42.692;23.314;2023-08-06T00:43:07;4.63;;;4.13;;
24277;SDS011;12394;42.692;23.314;2023-08-06T00:45:33;6.77;;;4.47;;
24277;SDS011;12394;42.692;23.314;2023-08-06T00:48:00;6.50;;;4.30;;
24277;SDS011;12394;42.692;23.314;2023-08-06T00:50:26;6.57;;;4.47;;
24277;SDS011;12394;42.692;23.314;2023-08-06T00:52:52;6.53;;;4.30;;
24277;SDS011;12394;42.692;23.314;2023-08-06T00:55:18;7.10;;;4.20;;
24277;SDS011;12394;42.692;23.314;2023-08-06T00:57:44;4.73;;;4.10;;
24277;SDS011;12394;42.692;23.314;2023-08-06T01:00:09;4.57;;;3.97;;
24277;SDS011;12394;42.692;23.314;2023-08-06T01:02:36;6.47;;;4.70;;
24277;SDS011;12394;42.692;23.314;2023-08-06T01:05:02;6.37;;;4.10;;
24277;SDS011;12394;42.692;23.314;2023-08-06T01:15:49;4.80;;;4.40;;
24277;SDS011;12394;42.692;23.314;2023-08-06T01:18:19;5.70;;;4.00;;
24277;SDS011;12394;42.692;23.314;2023-08-06T01:20:45;5.90;;;4.10;;
24277;SDS011;12394;42.692;23.314;2023-08-06T01:23:10;5.97;;;4.23;;
24277;SDS011;12394;42.692;23.314;2023-08-06T01:25:40;5.13;;;3.60;;
24277;SDS011;12394;42.692;23.314;2023-08-06T01:28:23;5.23;;;3.90;;
24277;SDS011;12394;42.692;23.314;2023-08-06T01:31:24;5.13;;;4.37;;
24277;SDS011;12394;42.692;23.314;2023-08-06T01:33:52;4.83;;;4.30;;
24277;SDS011;12394;42.692;23.314;2023-08-06T01:36:20;6.20;;;4.27;;
24277;SDS011;12394;42.692;23.314;2023-08-06T01:38:46;5.57;;;5.07;;
24277;SDS011;12394;42.692;23.314;2023-08-06T01:41:11;6.33;;;5.57;;
24277;SDS011;12394;42.692;23.314;2023-08-06T01:43:36;7.47;;;5.50;;
24277;SDS011;12394;42.692;23.314;2023-08-06T01:46:02;5.67;;;4.77;;
24277;SDS011;12394;42.692;23.314;2023-08-06T01:48:27;8.00;;;5.40;;
24277;SDS011;12394;42.692;23.314;2023-08-06T01:50:53;6.33;;;5.67;;
24277;SDS011;12394;42.692;23.314;2023-08-06T01:53:18;5.30;;;4.17;;
24277;SDS011;12394;42.692;23.314;2023-08-06T01:55:47;5.87;;;4.57;;
24277;SDS011;12394;42.692;23.314;2023-08-06T01:58:13;6.40;;;4.53;;
24277;SDS011;12394;42.692;23.314;2023-08-06T02:00:39;6.20;;;4.70;;
24277;SDS011;12394;42.692;23.314;2023-08-06T02:03:05;8.03;;;5.27;;
24277;SDS011;12394;42.692;23.314;2023-08-06T02:05:30;7.33;;;5.00;;
24277;SDS011;12394;42.692;23.314;2023-08-06T02:07:55;8.17;;;4.63;;
24277;SDS011;12394;42.692;23.314;2023-08-06T02:10:21;7.60;;;4.90;;
24277;SDS011;12394;42.692;23.314;2023-08-06T02:12:46;6.07;;;4.67;;
24277;SDS011;12394;42.692;23.314;2023-08-06T02:15:12;5.70;;;4.50;;
24277;SDS011;12394;42.692;23.314;2023-08-06T02:17:37;4.77;;;3.93;;
24277;SDS011;12394;42.692;23.314;2023-08-06T02:20:03;5.53;;;4.40;;
24277;SDS011;12394;42.692;23.314;2023-08-06T02:22:28;7.83;;;5.23;;
24277;SDS011;12394;42.692;23.314;2023-08-06T02:24:54;5.07;;;4.50;;
24277;SDS011;12394;42.692;23.314;2023-08-06T02:27:19;9.87;;;5.00;;
24277;SDS011;12394;42.692;23.314;2023-08-06T02:29:44;8.67;;;5.53;;
24277;SDS011;12394;42.692;23.314;2023-08-06T02:32:10;18.40;;;7.97;;
24277;SDS011;12394;42.692;23.314;2023-08-06T02:34:35;19.97;;;7.43;;
24277;SDS011;12394;42.692;23.314;2023-08-06T02:37:01;11.60;;;6.37;;
24277;SDS011;12394;42.692;23.314;2023-08-06T02:39:26;9.83;;;5.83;;
24277;SDS011;12394;42.692;23.314;2023-08-06T02:41:51;7.13;;;5.27;;
24277;SDS011;12394;42.692;23.314;2023-08-06T02:44:17;6.23;;;5.00;;
24277;SDS011;12394;42.692;23.314;2023-08-06T02:46:44;7.33;;;4.90;;
24277;SDS011;12394;42.692;23.314;2023-08-06T02:49:09;6.80;;;5.27;;
24277;SDS011;12394;42.692;23.314;2023-08-06T02:51:35;7.47;;;4.83;;
24277;SDS011;12394;42.692;23.314;2023-08-06T02:54:00;7.43;;;5.07;;
24277;SDS011;12394;42.692;23.314;2023-08-06T02:56:26;6.83;;;5.20;;
24277;SDS011;12394;42.692;23.314;2023-08-06T02:58:51;8.23;;;5.33;;
24277;SDS011;12394;42.692;23.314;2023-08-06T03:01:16;6.97;;;5.10;;
24277;SDS011;12394;42.692;23.314;2023-08-06T03:03:42;7.13;;;4.80;;
24277;SDS011;12394;42.692;23.314;2023-08-06T03:06:07;5.97;;;5.07;;
24277;SDS011;12394;42.692;23.314;2023-08-06T03:08:33;5.63;;;4.13;;
24277;SDS011;12394;42.692;23.314;2023-08-06T03:10:58;5.17;;;4.17;;
24277;SDS011;12394;42.692;23.314;2023-08-06T03:13:23;5.93;;;5.20;;
24277;SDS011;12394;42.692;23.314;2023-08-06T03:15:53;5.37;;;4.53;;
24277;SDS011;12394;42.692;23.314;2023-08-06T03:18:19;7.50;;;5.03;;
24277;SDS011;12394;42.692;23.314;2023-08-06T03:20:45;7.13;;;4.80;;
24277;SDS011;12394;42.692;23.314;2023-08-06T03:23:11;7.23;;;4.90;;
24277;SDS011;12394;42.692;23.314;2023-08-06T03:25:36;7.03;;;4.73;;
24277;SDS011;12394;42.692;23.314;2023-08-06T03:28:02;5.10;;;4.60;;
24277;SDS011;12394;42.692;23.314;2023-08-06T03:30:27;5.93;;;4.50;;
24277;SDS011;12394;42.692;23.314;2023-08-06T03:32:52;6.33;;;4.63;;
24277;SDS011;12394;42.692;23.314;2023-08-06T03:35:18;4.93;;;4.47;;
24277;SDS011;12394;42.692;23.314;2023-08-06T03:37:43;5.10;;;3.50;;
24277;SDS011;12394;42.692;23.314;2023-08-06T03:40:09;6.23;;;4.13;;
24277;SDS011;12394;42.692;23.314;2023-08-06T03:42:35;4.87;;;4.27;;
24277;SDS011;12394;42.692;23.314;2023-08-06T03:45:00;6.37;;;4.07;;
24277;SDS011;12394;42.692;23.314;2023-08-06T03:47:26;5.47;;;3.83;;
24277;SDS011;12394;42.692;23.314;2023-08-06T03:49:51;5.50;;;3.93;;
24277;SDS011;12394;42.692;23.314;2023-08-06T03:52:16;5.37;;;3.63;;
24277;SDS011;12394;42.692;23.314;2023-08-06T03:54:42;5.53;;;3.73;;
24277;SDS011;12394;42.692;23.314;2023-08-06T03:57:08;4.20;;;3.73;;
24277;SDS011;12394;42.692;23.314;2023-08-06T03:59:34;5.00;;;3.87;;
24277;SDS011;12394;42.692;23.314;2023-08-06T04:01:59;8.03;;;4.37;;
24277;SDS011;12394;42.692;23.314;2023-08-06T04:04:24;5.00;;;4.30;;
24277;SDS011;12394;42.692;23.314;2023-08-06T04:06:50;4.87;;;4.20;;
24277;SDS011;12394;42.692;23.314;2023-08-06T04:09:15;5.20;;;3.90;;
24277;SDS011;12394;42.692;23.314;2023-08-06T04:11:41;5.40;;;4.53;;
24277;SDS011;12394;42.692;23.314;2023-08-06T04:14:06;4.70;;;4.30;;
24277;SDS011;12394;42.692;23.314;2023-08-06T04:16:32;6.63;;;4.60;;
24277;SDS011;12394;42.692;23.314;2023-08-06T04:18:57;4.63;;;4.13;;
24277;SDS011;12394;42.692;23.314;2023-08-06T04:21:23;5.20;;;4.70;;
24277;SDS011;12394;42.692;23.314;2023-08-06T04:23:48;5.80;;;4.30;;
24277;SDS011;12394;42.692;23.314;2023-08-06T04:26:14;6.13;;;4.60;;
24277;SDS011;12394;42.692;23.314;2023-08-06T04:28:39;5.07;;;4.47;;
24277;SDS011;12394;42.692;23.314;2023-08-06T04:31:05;6.77;;;4.67;;
24277;SDS011;12394;42.692;23.314;2023-08-06T04:33:30;7.50;;;4.87;;
24277;SDS011;12394;42.692;23.314;2023-08-06T04:35:56;6.43;;;4.20;;
24277;SDS011;12394;42.692;23.314;2023-08-06T04:38:25;6.63;;;4.80;;
24277;SDS011;12394;42.692;23.314;2023-08-06T04:40:50;5.60;;;4.83;;
24277;SDS011;12394;42.692;23.314;2023-08-06T04:43:16;4.63;;;4.07;;
24277;SDS011;12394;42.692;23.314;2023-08-06T04:45:53;6.33;;;4.10;;
24277;SDS011;12394;42.692;23.314;2023-08-06T04:48:19;4.80;;;4.27;;
24277;SDS011;12394;42.692;23.314;2023-08-06T04:50:45;6.10;;;4.60;;
24277;SDS011;12394;42.692;23.314;2023-08-06T04:53:11;5.63;;;4.73;;
24277;SDS011;12394;42.692;23.314;2023-08-06T04:55:37;6.97;;;4.93;;
24277;SDS011;12394;42.692;23.314;2023-08-06T04:58:03;6.50;;;5.80;;
24277;SDS011;12394;42.692;23.314;2023-08-06T05:00:28;6.20;;;5.37;;
24277;SDS011;12394;42.692;23.314;2023-08-06T05:02:54;10.03;;;6.17;;
24277;SDS011;12394;42.692;23.314;2023-08-06T05:05:19;5.93;;;5.17;;
24277;SDS011;12394;42.692;23.314;2023-08-06T05:07:48;7.03;;;4.73;;
24277;SDS011;12394;42.692;23.314;2023-08-06T05:10:15;5.90;;;4.43;;
24277;SDS011;12394;42.692;23.314;2023-08-06T05:12:40;5.07;;;4.10;;
24277;SDS011;12394;42.692;23.314;2023-08-06T05:15:06;8.67;;;4.37;;
24277;SDS011;12394;42.692;23.314;2023-08-06T05:17:32;4.63;;;4.10;;
24277;SDS011;12394;42.692;23.314;2023-08-06T05:19:57;6.80;;;4.80;;
24277;SDS011;12394;42.692;23.314;2023-08-06T05:22:23;7.37;;;4.67;;
24277;SDS011;12394;42.692;23.314;2023-08-06T05:24:48;5.43;;;4.77;;
24277;SDS011;12394;42.692;23.314;2023-08-06T05:27:13;7.33;;;6.53;;
24277;SDS011;12394;42.692;23.314;2023-08-06T05:29:39;8.07;;;7.00;;
24277;SDS011;12394;42.692;23.314;2023-08-06T05:32:04;11.43;;;6.93;;
24277;SDS011;12394;42.692;23.314;2023-08-06T05:34:30;9.03;;;7.07;;
24277;SDS011;12394;42.692;23.314;2023-08-06T05:36:55;10.70;;;8.23;;
24277;SDS011;12394;42.692;23.314;2023-08-06T05:39:21;12.93;;;9.27;;
24277;SDS011;12394;42.692;23.314;2023-08-06T05:41:46;10.67;;;9.57;;
24277;SDS011;12394;42.692;23.314;2023-08-06T05:44:12;11.73;;;8.97;;
24277;SDS011;12394;42.692;23.314;2023-08-06T05:46:37;10.10;;;9.10;;
24277;SDS011;12394;42.692;23.314;2023-08-06T05:49:02;8.07;;;6.57;;
24277;SDS011;12394;42.692;23.314;2023-08-06T05:51:28;8.33;;;5.97;;
24277;SDS011;12394;42.692;23.314;2023-08-06T05:53:54;6.57;;;4.87;;
24277;SDS011;12394;42.692;23.314;2023-08-06T05:56:19;6.67;;;4.53;;
24277;SDS011;12394;42.692;23.314;2023-08-06T05:58:45;4.03;;;3.70;;
24277;SDS011;12394;42.692;23.314;2023-08-06T06:01:12;4.00;;;3.33;;
24277;SDS011;12394;42.692;23.314;2023-08-06T06:03:38;4.97;;;3.50;;
24277;SDS011;12394;42.692;23.314;2023-08-06T06:06:03;6.43;;;3.70;;
24277;SDS011;12394;42.692;23.314;2023-08-06T06:08:29;4.20;;;2.93;;
24277;SDS011;12394;42.692;23.314;2023-08-06T06:10:54;3.67;;;3.10;;
24277;SDS011;12394;42.692;23.314;2023-08-06T06:13:19;4.47;;;2.90;;
24277;SDS011;12394;42.692;23.314;2023-08-06T06:15:46;4.60;;;2.93;;
24277;SDS011;12394;42.692;23.314;2023-08-06T06:18:12;4.27;;;2.60;;
24277;SDS011;12394;42.692;23.314;2023-08-06T06:20:38;4.13;;;2.50;;
24277;SDS011;12394;42.692;23.314;2023-08-06T06:23:03;2.50;;;2.30;;
24277;SDS011;12394;42.692;23.314;2023-08-06T06:25:29;3.10;;;2.50;;
24277;SDS011;12394;42.692;23.314;2023-08-06T06:27:54;2.80;;;2.60;;
24277;SDS011;12394;42.692;23.314;2023-08-06T06:30:19;4.80;;;2.50;;
24277;SDS011;12394;42.692;23.314;2023-08-06T06:32:45;3.10;;;2.40;;
24277;SDS011;12394;42.692;23.314;2023-08-06T06:35:10;3.77;;;2.50;;
24277;SDS011;12394;42.692;23.314;2023-08-06T06:37:36;8.40;;;2.53;;
24277;SDS011;12394;42.692;23.314;2023-08-06T06:40:01;2.63;;;2.43;;
24277;SDS011;12394;42.692;23.314;2023-08-06T06:42:27;3.90;;;2.60;;
24277;SDS011;12394;42.692;23.314;2023-08-06T06:44:52;2.43;;;2.20;;
24277;SDS011;12394;42.692;23.314;2023-08-06T06:47:17;3.93;;;2.70;;
24277;SDS011;12394;42.692;23.314;2023-08-06T06:49:43;7.53;;;2.97;;
24277;SDS011;12394;42.692;23.314;2023-08-06T06:52:08;3.67;;;2.73;;
24277;SDS011;12394;42.692;23.314;2023-08-06T06:54:34;6.73;;;2.97;;
24277;SDS011;12394;42.692;23.314;2023-08-06T06:56:59;4.83;;;2.90;;
24277;SDS011;12394;42.692;23.314;2023-08-06T06:59:24;5.80;;;2.80;;
24277;SDS011;12394;42.692;23.314;2023-08-06T07:01:50;5.23;;;3.10;;
24277;SDS011;12394;42.692;23.314;2023-08-06T07:04:15;3.10;;;2.67;;
24277;SDS011;12394;42.692;23.314;2023-08-06T07:06:41;4.63;;;2.70;;
24277;SDS011;12394;42.692;23.314;2023-08-06T07:09:06;4.60;;;2.80;;
24277;SDS011;12394;42.692;23.314;2023-08-06T07:11:31;6.43;;;2.97;;
24277;SDS011;12394;42.692;23.314;2023-08-06T07:13:57;3.10;;;2.77;;
24277;SDS011;12394;42.692;23.314;2023-08-06T07:16:24;3.00;;;2.67;;
24277;SDS011;12394;42.692;23.314;2023-08-06T07:18:51;5.20;;;3.07;;
24277;SDS011;12394;42.692;23.314;2023-08-06T07:21:17;5.90;;;3.17;;
24277;SDS011;12394;42.692;23.314;2023-08-06T07:23:43;3.60;;;3.13;;
24277;SDS011;12394;42.692;23.314;2023-08-06T07:26:08;4.97;;;3.20;;
24277;SDS011;12394;42.692;23.314;2023-08-06T07:28:34;4.77;;;2.90;;
24277;SDS011;12394;42.692;23.314;2023-08-06T07:30:59;6.53;;;2.97;;
24277;SDS011;12394;42.692;23.314;2023-08-06T07:33:25;2.77;;;2.57;;
24277;SDS011;12394;42.692;23.314;2023-08-06T07:35:50;2.67;;;2.47;;
24277;SDS011;12394;42.692;23.314;2023-08-06T07:38:16;3.10;;;2.80;;
24277;SDS011;12394;42.692;23.314;2023-08-06T07:40:41;4.73;;;2.63;;
24277;SDS011;12394;42.692;23.314;2023-08-06T07:43:07;3.63;;;3.07;;
24277;SDS011;12394;42.692;23.314;2023-08-06T07:45:33;3.30;;;2.80;;
24277;SDS011;12394;42.692;23.314;2023-08-06T07:48:02;4.90;;;2.83;;
24277;SDS011;12394;42.692;23.314;2023-08-06T07:50:28;6.27;;;2.90;;
24277;SDS011;12394;42.692;23.314;2023-08-06T07:52:54;4.23;;;3.03;;
24277;SDS011;12394;42.692;23.314;2023-08-06T07:55:19;4.20;;;3.10;;
24277;SDS011;12394;42.692;23.314;2023-08-06T07:57:45;7.43;;;3.77;;
24277;SDS011;12394;42.692;23.314;2023-08-06T08:00:10;3.10;;;2.80;;
24277;SDS011;12394;42.692;23.314;2023-08-06T08:02:36;3.60;;;3.10;;
24277;SDS011;12394;42.692;23.314;2023-08-06T08:05:01;4.30;;;3.20;;
24277;SDS011;12394;42.692;23.314;2023-08-06T08:07:27;9.87;;;3.57;;
24277;SDS011;12394;42.692;23.314;2023-08-06T08:09:55;6.03;;;3.30;;
24277;SDS011;12394;42.692;23.314;2023-08-06T08:12:21;9.13;;;3.30;;
24277;SDS011;12394;42.692;23.314;2023-08-06T08:14:46;5.97;;;3.40;;
24277;SDS011;12394;42.692;23.314;2023-08-06T08:17:11;4.13;;;3.23;;
24277;SDS011;12394;42.692;23.314;2023-08-06T08:19:37;6.37;;;3.53;;
24277;SDS011;12394;42.692;23.314;2023-08-06T08:22:02;4.43;;;2.67;;
24277;SDS011;12394;42.692;23.314;2023-08-06T08:24:28;4.00;;;2.80;;
24277;SDS011;12394;42.692;23.314;2023-08-06T08:26:55;8.23;;;3.33;;
24277;SDS011;12394;42.692;23.314;2023-08-06T08:29:21;6.63;;;3.00;;
24277;SDS011;12394;42.692;23.314;2023-08-06T08:31:47;3.67;;;2.83;;
24277;SDS011;12394;42.692;23.314;2023-08-06T08:34:17;3.57;;;3.00;;
24277;SDS011;12394;42.692;23.314;2023-08-06T08:36:42;3.53;;;2.80;;
24277;SDS011;12394;42.692;23.314;2023-08-06T08:39:08;4.63;;;2.63;;
24277;SDS011;12394;42.692;23.314;2023-08-06T08:41:35;5.37;;;2.97;;
24277;SDS011;12394;42.692;23.314;2023-08-06T08:44:02;3.20;;;2.57;;
24277;SDS011;12394;42.692;23.314;2023-08-06T08:46:30;5.07;;;2.77;;
24277;SDS011;12394;42.692;23.314;2023-08-06T08:48:57;7.37;;;3.30;;
24277;SDS011;12394;42.692;23.314;2023-08-06T08:51:25;3.63;;;2.60;;
24277;SDS011;12394;42.692;23.314;2023-08-06T08:53:53;3.33;;;2.50;;
24277;SDS011;12394;42.692;23.314;2023-08-06T08:56:22;3.42;;;2.60;;
24277;SDS011;12394;42.692;23.314;2023-08-06T08:58:48;2.95;;;2.65;;
24277;SDS011;12394;42.692;23.314;2023-08-06T09:01:14;3.10;;;2.35;;
24277;SDS011;12394;42.692;23.314;2023-08-06T09:03:41;3.47;;;2.63;;
24277;SDS011;12394;42.692;23.314;2023-08-06T09:06:08;3.17;;;2.45;;
24277;SDS011;12394;42.692;23.314;2023-08-06T09:08:39;3.65;;;2.30;;
24277;SDS011;12394;42.692;23.314;2023-08-06T09:11:08;4.82;;;2.88;;
24277;SDS011;12394;42.692;23.314;2023-08-06T09:13:36;3.47;;;2.58;;
24277;SDS011;12394;42.692;23.314;2023-08-06T09:16:02;2.58;;;2.38;;
24277;SDS011;12394;42.692;23.314;2023-08-06T09:18:29;5.45;;;3.05;;
24277;SDS011;12394;42.692;23.314;2023-08-06T09:20:55;4.82;;;2.85;;
24277;SDS011;12394;42.692;23.314;2023-08-06T09:23:21;7.43;;;2.65;;
24277;SDS011;12394;42.692;23.314;2023-08-06T09:25:54;3.30;;;3.00;;
24277;SDS011;12394;42.692;23.314;2023-08-06T09:28:19;3.80;;;2.42;;
24277;SDS011;12394;42.692;23.314;2023-08-06T09:30:46;5.13;;;2.60;;
24277;SDS011;12394;42.692;23.314;2023-08-06T09:33:14;2.63;;;2.42;;
24277;SDS011;12394;42.692;23.314;2023-08-06T09:35:43;3.97;;;2.40;;
24277;SDS011;12394;42.692;23.314;2023-08-06T09:38:09;3.97;;;2.20;;
24277;SDS011;12394;42.692;23.314;2023-08-06T09:40:35;2.97;;;2.40;;
24277;SDS011;12394;42.692;23.314;2023-08-06T09:43:01;3.30;;;2.10;;
24277;SDS011;12394;42.692;23.314;2023-08-06T09:45:28;3.30;;;2.35;;
24277;SDS011;12394;42.692;23.314;2023-08-06T09:47:56;2.53;;;2.20;;
24277;SDS011;12394;42.692;23.314;2023-08-06T09:50:22;4.15;;;2.30;;
24277;SDS011;12394;42.692;23.314;2023-08-06T09:52:48;4.38;;;2.40;;
24277;SDS011;12394;42.692;23.314;2023-08-06T09:55:16;3.35;;;2.30;;
24277;SDS011;12394;42.692;23.314;2023-08-06T09:57:43;10.35;;;9.38;;
24277;SDS011;12394;42.692;23.314;2023-08-06T10:00:09;3.13;;;2.75;;
24277;SDS011;12394;42.692;23.314;2023-08-06T10:02:39;6.05;;;2.58;;
24277;SDS011;12394;42.692;23.314;2023-08-06T10:05:09;3.50;;;2.43;;
24277;SDS011;12394;42.692;23.314;2023-08-06T10:07:35;2.87;;;2.30;;
24277;SDS011;12394;42.692;23.314;2023-08-06T10:10:01;2.77;;;2.50;;
24277;SDS011;12394;42.692;23.314;2023-08-06T10:12:50;4.00;;;2.17;;
24277;SDS011;12394;42.692;23.314;2023-08-06T10:15:19;2.83;;;2.20;;
24277;SDS011;12394;42.692;23.314;2023-08-06T10:17:51;2.83;;;2.63;;
24277;SDS011;12394;42.692;23.314;2023-08-06T10:20:19;8.20;;;2.70;;
24277;SDS011;12394;42.692;23.314;2023-08-06T10:22:55;5.30;;;2.87;;
24277;SDS011;12394;42.692;23.314;2023-08-06T10:25:25;2.50;;;2.30;;
24277;SDS011;12394;42.692;23.314;2023-08-06T10:27:54;4.63;;;2.60;;
24277;SDS011;12394;42.692;23.314;2023-08-06T10:32:58;4.67;;;2.90;;
24277;SDS011;12394;42.692;23.314;2023-08-06T10:35:37;5.90;;;3.17;;
24277;SDS011;12394;42.692;23.314;2023-08-06T10:38:14;3.27;;;2.97;;
24277;SDS011;12394;42.692;23.314;2023-08-06T10:40:41;6.07;;;2.90;;
24277;SDS011;12394;42.692;23.314;2023-08-06T10:43:36;5.30;;;2.70;;
24277;SDS011;12394;42.692;23.314;2023-08-06T10:46:11;6.57;;;2.87;;
24277;SDS011;12394;42.692;23.314;2023-08-06T10:48:46;4.13;;;3.03;;
24277;SDS011;12394;42.692;23.314;2023-08-06T10:51:12;5.07;;;2.87;;
24277;SDS011;12394;42.692;23.314;2023-08-06T10:53:46;2.87;;;2.60;;
24277;SDS011;12394;42.692;23.314;2023-08-06T10:56:22;3.80;;;2.70;;
24277;SDS011;12394;42.692;23.314;2023-08-06T10:58:49;3.07;;;2.33;;
24277;SDS011;12394;42.692;23.314;2023-08-06T11:01:16;3.83;;;3.10;;
24277;SDS011;12394;42.692;23.314;2023-08-06T11:03:41;2.90;;;2.60;;
24277;SDS011;12394;42.692;23.314;2023-08-06T11:06:08;3.80;;;2.90;;
24277;SDS011;12394;42.692;23.314;2023-08-06T11:08:35;3.47;;;3.10;;
24277;SDS011;12394;42.692;23.314;2023-08-06T11:11:08;4.70;;;3.10;;
24277;SDS011;12394;42.692;23.314;2023-08-06T11:13:42;3.73;;;3.20;;
24277;SDS011;12394;42.692;23.314;2023-08-06T11:16:08;3.73;;;3.33;;
24277;SDS011;12394;42.692;23.314;2023-08-06T11:18:35;4.70;;;3.13;;
24277;SDS011;12394;42.692;23.314;2023-08-06T11:21:01;4.93;;;3.40;;
24277;SDS011;12394;42.692;23.314;2023-08-06T11:23:27;4.83;;;3.60;;
24277;SDS011;12394;42.692;23.314;2023-08-06T11:25:54;9.07;;;3.60;;
24277;SDS011;12394;42.692;23.314;2023-08-06T11:28:20;4.50;;;3.97;;
24277;SDS011;12394;42.692;23.314;2023-08-06T11:30:48;4.70;;;3.83;;
24277;SDS011;12394;42.692;23.314;2023-08-06T11:33:17;3.73;;;3.40;;
24277;SDS011;12394;42.692;23.314;2023-08-06T11:35:46;4.73;;;3.30;;
24277;SDS011;12394;42.692;23.314;2023-08-06T11:38:13;5.97;;;3.30;;
24277;SDS011;12394;42.692;23.314;2023-08-06T11:40:38;5.03;;;3.17;;
24277;SDS011;12394;42.692;23.314;2023-08-06T11:43:05;4.13;;;3.40;;
24277;SDS011;12394;42.692;23.314;2023-08-06T11:45:31;3.67;;;3.00;;
24277;SDS011;12394;42.692;23.314;2023-08-06T11:47:59;7.50;;;3.67;;
24277;SDS011;12394;42.692;23.314;2023-08-06T11:50:25;6.27;;;3.30;;
24277;SDS011;12394;42.692;23.314;2023-08-06T11:52:56;4.23;;;3.33;;
24277;SDS011;12394;42.692;23.314;2023-08-06T11:55:26;3.80;;;3.33;;
24277;SDS011;12394;42.692;23.314;2023-08-06T11:57:53;3.73;;;3.43;;
24277;SDS011;12394;42.692;23.314;2023-08-06T12:00:19;5.27;;;4.03;;
24277;SDS011;12394;42.692;23.314;2023-08-06T12:02:47;7.57;;;4.13;;
24277;SDS011;12394;42.692;23.314;2023-08-06T12:05:17;6.07;;;4.00;;
24277;SDS011;12394;42.692;23.314;2023-08-06T12:07:48;4.47;;;3.87;;
24277;SDS011;12394;42.692;23.314;2023-08-06T12:10:16;7.23;;;4.03;;
24277;SDS011;12394;42.692;23.314;2023-08-06T12:12:43;18.30;;;5.87;;
24277;SDS011;12394;42.692;23.314;2023-08-06T12:15:09;5.17;;;4.17;;
24277;SDS011;12394;42.692;23.314;2023-08-06T12:17:35;5.13;;;4.63;;
24277;SDS011;12394;42.692;23.314;2023-08-06T12:20:01;5.20;;;4.80;;
24277;SDS011;12394;42.692;23.314;2023-08-06T12:22:31;5.77;;;5.07;;
24277;SDS011;12394;42.692;23.314;2023-08-06T12:25:00;5.20;;;4.70;;
24277;SDS011;12394;42.692;23.314;2023-08-06T12:27:28;4.77;;;4.07;;
24277;SDS011;12394;42.692;23.314;2023-08-06T12:29:54;4.60;;;4.20;;
24277;SDS011;12394;42.692;23.314;2023-08-06T12:32:19;5.37;;;4.33;;
24277;SDS011;12394;42.692;23.314;2023-08-06T12:34:45;7.27;;;4.87;;
24277;SDS011;12394;42.692;23.314;2023-08-06T12:37:10;5.90;;;5.30;;
24277;SDS011;12394;42.692;23.314;2023-08-06T12:39:36;5.73;;;4.53;;
24277;SDS011;12394;42.692;23.314;2023-08-06T12:42:02;5.33;;;4.83;;
24277;SDS011;12394;42.692;23.314;2023-08-06T12:44:29;6.30;;;4.60;;
24277;SDS011;12394;42.692;23.314;2023-08-06T12:46:55;7.20;;;4.70;;
24277;SDS011;12394;42.692;23.314;2023-08-06T12:49:21;6.87;;;4.97;;
24277;SDS011;12394;42.692;23.314;2023-08-06T12:51:47;5.83;;;5.23;;
24277;SDS011;12394;42.692;23.314;2023-08-06T12:54:16;5.87;;;5.10;;
24277;SDS011;12394;42.692;23.314;2023-08-06T12:56:43;6.37;;;5.33;;
24277;SDS011;12394;42.692;23.314;2023-08-06T12:59:09;7.80;;;5.07;;
24277;SDS011;12394;42.692;23.314;2023-08-06T13:01:34;7.57;;;4.77;;
24277;SDS011;12394;42.692;23.314;2023-08-06T13:04:00;5.63;;;4.97;;
24277;SDS011;12394;42.692;23.314;2023-08-06T13:06:26;5.90;;;5.10;;
24277;SDS011;12394;42.692;23.314;2023-08-06T13:08:51;6.53;;;5.27;;
24277;SDS011;12394;42.692;23.314;2023-08-06T13:11:17;7.67;;;5.20;;
24277;SDS011;12394;42.692;23.314;2023-08-06T13:13:44;5.17;;;4.67;;
24277;SDS011;12394;42.692;23.314;2023-08-06T13:16:09;5.03;;;4.47;;
24277;SDS011;12394;42.692;23.314;2023-08-06T13:18:34;5.53;;;4.90;;
24277;SDS011;12394;42.692;23.314;2023-08-06T13:21:00;6.67;;;5.00;;
24277;SDS011;12394;42.692;23.314;2023-08-06T13:23:25;9.03;;;4.77;;
24277;SDS011;12394;42.692;23.314;2023-08-06T13:25:51;5.53;;;4.23;;
24277;SDS011;12394;42.692;23.314;2023-08-06T13:28:16;5.57;;;4.97;;
24277;SDS011;12394;42.692;23.314;2023-08-06T13:30:42;5.00;;;4.40;;
24277;SDS011;12394;42.692;23.314;2023-08-06T13:33:07;5.97;;;5.10;;
24277;SDS011;12394;42.692;23.314;2023-08-06T13:35:34;5.37;;;4.90;;
24277;SDS011;12394;42.692;23.314;2023-08-06T13:37:59;5.20;;;4.80;;
24277;SDS011;12394;42.692;23.314;2023-08-06T13:40:27;6.37;;;5.00;;
24277;SDS011;12394;42.692;23.314;2023-08-06T13:42:53;5.70;;;4.30;;
24277;SDS011;12394;42.692;23.314;2023-08-06T13:45:18;8.87;;;4.87;;
24277;SDS011;12394;42.692;23.314;2023-08-06T13:47:44;6.57;;;5.07;;
24277;SDS011;12394;42.692;23.314;2023-08-06T13:50:09;5.17;;;4.60;;
24277;SDS011;12394;42.692;23.314;2023-08-06T13:52:35;8.00;;;4.60;;
24277;SDS011;12394;42.692;23.314;2023-08-06T13:55:01;6.43;;;4.73;;
24277;SDS011;12394;42.692;23.314;2023-08-06T13:57:26;6.17;;;4.57;;
24277;SDS011;12394;42.692;23.314;2023-08-06T13:59:51;6.37;;;4.53;;
24277;SDS011;12394;42.692;23.314;2023-08-06T14:02:17;8.00;;;4.67;;
24277;SDS011;12394;42.692;23.314;2023-08-06T14:04:42;6.30;;;4.50;;
24277;SDS011;12394;42.692;23.314;2023-08-06T14:07:08;6.70;;;4.67;;
24277;SDS011;12394;42.692;23.314;2023-08-06T14:09:33;6.13;;;4.50;;
24277;SDS011;12394;42.692;23.314;2023-08-06T14:11:59;9.97;;;4.30;;
24277;SDS011;12394;42.692;23.314;2023-08-06T14:14:25;5.93;;;4.50;;
24277;SDS011;12394;42.692;23.314;2023-08-06T14:16:53;11.23;;;4.13;;
24277;SDS011;12394;42.692;23.314;2023-08-06T14:19:19;5.63;;;4.37;;
24277;SDS011;12394;42.692;23.314;2023-08-06T14:21:45;4.93;;;4.37;;
24277;SDS011;12394;42.692;23.314;2023-08-06T14:24:10;6.30;;;4.40;;
24277;SDS011;12394;42.692;23.314;2023-08-06T14:26:36;5.63;;;4.50;;
24277;SDS011;12394;42.692;23.314;2023-08-06T14:29:02;4.90;;;4.50;;
24277;SDS011;12394;42.692;23.314;2023-08-06T14:31:27;5.37;;;4.13;;
24277;SDS011;12394;42.692;23.314;2023-08-06T14:33:53;5.17;;;4.30;;
24277;SDS011;12394;42.692;23.314;2023-08-06T14:36:18;8.93;;;3.90;;
24277;SDS011;12394;42.692;23.314;2023-08-06T14:38:44;6.10;;;4.07;;
24277;SDS011;12394;42.692;23.314;2023-08-06T14:41:09;4.80;;;4.07;;